• Join FlightAware (Why Join?)
  • Login
  • US Flag 
10:43AM EDT


 

Airport Tracker/Info


-or-


 

Live Flight TrackerFlight Track Log ✈ BJS444 ✈ 28-Apr-2013 ✈ KBED - KAPF

Flight Track Log - Related Links

Times and Time Zones

All times are in EDT time to prevent confusion due to time zone crossing. See the BJS444 flight status page for this flight to view local times or setup timezone preferences in your user account.

Time Position Orientation Groundspeed Altitude Reporting Facility
EDT Latitude Longitude Course Direction KTS MPH feet Rate Location/Type
05:08PM 42.4667 -71.2667 200° South 147 169 1,200  Level KA90
05:08PM 42.4333 -71.2833 200° South 193 222 2,600 2,640 Climbing KA90
05:11PM 42.3814 -71.4422 246° West 227 261 8,900 2,880 Climbing Boston Center
05:12PM 42.3697 -71.5381 261° West 273 314 11,300 2,520 Climbing Boston Center
05:13PM 42.3269 -71.6539 243° Southwest 332 382 14,000 2,880 Climbing Boston Center
05:14PM 42.2900 -71.7553 244° Southwest 369 425 17,100 3,660 Climbing Boston Center
05:15PM 42.2283 -71.9186 243° Southwest 403 464 21,500 3,780 Climbing Boston Center
05:16PM 42.1808 -72.0533 245° Southwest 403 464 24,800 2,760 Climbing Boston Center
05:17PM 42.1417 -72.1600 244° Southwest 403 464 27,000 2,640 Climbing Boston Center
05:18PM 42.0794 -72.3197 242° Southwest 403 464 30,100 3,000 Climbing Boston Center
05:19PM 42.0314 -72.4514 244° Southwest 403 464 33,000 2,940 Climbing Boston Center
05:20PM 41.9856 -72.5714 243° Southwest 388 447 36,000 2,460 Climbing Boston Center
05:21PM 41.9436 -72.6772 242° Southwest 352 405 38,000 1,500 Climbing Boston Center
05:22PM 41.8789 -72.7719 227° Southwest 339 390 39,100 900 Climbing Boston Center
05:23PM 41.7994 -72.8800 225° Southwest 360 414 39,800 420 Climbing Boston Center
05:24PM 41.7239 -72.9825 225° Southwest 378 435 40,000 60 Climbing Boston Center
05:25PM 41.6461 -73.0900 226° Southwest 388 447 40,000 480 Level Boston Center
05:26PM 41.5664 -73.2031 227° Southwest 402 463 41,000 840 Climbing Boston Center
05:28PM 41.3811 -73.4506 225° Southwest 398 458 43,000 540 Climbing New York Center
05:29PM 41.2994 -73.5578 225° Southwest 398 458 43,000  Level New York Center
05:30PM 41.2281 -73.6761 231° Southwest 408 470 43,000  Level New York Center
05:31PM 41.1583 -73.7969 233° Southwest 418 481 43,000  Level New York Center
05:32PM 41.0864 -73.9150 231° Southwest 418 481 43,000  Level New York Center
05:33PM 41.0167 -74.0328 232° Southwest 418 481 43,000  Level New York Center
05:34PM 40.9444 -74.1500 231° Southwest 418 481 43,000  Level New York Center
05:35PM 40.8725 -74.2644 230° Southwest 413 475 43,000  Level New York Center
05:36PM 40.8022 -74.3786 231° Southwest 413 475 43,000  Level New York Center
05:37PM 40.7319 -74.4956 232° Southwest 413 475 43,000  Level New York Center
05:38PM 40.6639 -74.6094 232° Southwest 413 475 43,000  Level New York Center
05:39PM 40.5911 -74.7283 231° Southwest 413 475 43,000  Level New York Center
05:40PM 40.5144 -74.8411 228° Southwest 413 475 43,000  Level New York Center
05:41PM 40.4419 -74.9461 228° Southwest 413 475 43,000  Level New York Center
05:42PM 40.3650 -75.0531 227° Southwest 407 468 43,000  Level New York Center
05:43PM 40.2883 -75.1600 227° Southwest 407 468 43,000  Level New York Center
05:44PM 40.2156 -75.2639 227° Southwest 402 463 43,000  Level New York Center
05:45PM 40.1453 -75.3600 226° Southwest 402 463 43,000  Level New York Center
05:46PM 40.0725 -75.4608 227° Southwest 402 463 43,000  Level New York Center
05:47PM 39.9994 -75.5644 227° Southwest 397 457 43,000  Level New York Center
05:48PM 39.9242 -75.6675 226° Southwest 397 457 43,000  Level New York Center
05:49PM 39.8572 -75.7764 231° Southwest 397 457 43,000  Level New York Center
05:50PM 39.7878 -75.8850 230° Southwest 397 457 43,000  Level New York Center
05:51PM 39.7206 -75.9961 232° Southwest 397 457 43,000  Level New York Center
05:53PM 39.5869 -76.1975 229° Southwest 407 468 43,000  Level Washington Center
05:54PM 39.5156 -76.3097 231° Southwest 407 468 43,000  Level Washington Center
05:55PM 39.4419 -76.4219 230° Southwest 407 468 43,000  Level Washington Center
05:56PM 39.3767 -76.5233 230° Southwest 407 468 43,000  Level Washington Center
05:57PM 39.3028 -76.6350 229° Southwest 407 468 43,000  Level Washington Center
05:58PM 39.2331 -76.7464 231° Southwest 407 468 43,000  Level Washington Center
05:59PM 39.1611 -76.8550 230° Southwest 400 460 43,000  Level Washington Center
06:00PM 39.0931 -76.9661 232° Southwest 400 460 43,000  Level Washington Center
06:01PM 39.0169 -77.0689 226° Southwest 400 460 43,000  Level Washington Center
06:02PM 38.9300 -77.1739 223° Southwest 395 455 43,000  Level Washington Center
06:03PM 38.8497 -77.2497 216° Southwest 395 455 43,000  Level Washington Center
06:04PM 38.7631 -77.3436 220° Southwest 400 460 43,000  Level Washington Center
06:05PM 38.6697 -77.4450 220° Southwest 405 466 43,000  Level Washington Center
06:06PM 38.5850 -77.5386 221° Southwest 410 472 43,000  Level Washington Center
06:07PM 38.5000 -77.6292 220° Southwest 410 472 43,000  Level Washington Center
06:08PM 38.4169 -77.7250 222° Southwest 410 472 43,000  Level Washington Center
06:09PM 38.3278 -77.8175 219° Southwest 410 472 43,000  Level Washington Center
06:10PM 38.2469 -77.9078 221° Southwest 405 466 43,000  Level Washington Center
06:11PM 38.1575 -78.0028 220° Southwest 410 472 43,000  Level Washington Center
06:12PM 38.0700 -78.0975 220° Southwest 410 472 43,000  Level Washington Center
06:13PM 38.0017 -78.1664 218° Southwest 410 472 43,000  Level Washington Center
06:14PM 37.9036 -78.2631 218° Southwest 410 472 43,000  Level Washington Center
06:15PM 37.8014 -78.3567 216° Southwest 416 479 43,000  Level Washington Center
06:16PM 37.7097 -78.4453 217° Southwest 421 484 43,000  Level Washington Center
06:17PM 37.6158 -78.5333 217° Southwest 421 484 43,000  Level Washington Center
06:18PM 37.5219 -78.6214 217° Southwest 421 484 43,000  Level Washington Center
06:19PM 37.4300 -78.7092 217° Southwest 421 484 43,000  Level Washington Center
06:20PM 37.3444 -78.7867 216° Southwest 426 490 43,000  Level Washington Center
06:21PM 37.2525 -78.8717 216° Southwest 426 490 43,000  Level Washington Center
06:22PM 37.1603 -78.9564 216° Southwest 426 490 43,000  Level Washington Center
06:23PM 37.0661 -79.0433 216° Southwest 426 490 43,000  Level Washington Center
06:24PM 36.9761 -79.1278 217° Southwest 416 479 43,000  Level Washington Center
06:25PM 36.8753 -79.2192 216° Southwest 416 479 43,000  Level Washington Center
06:26PM 36.7850 -79.3031 217° Southwest 416 479 43,000  Level Washington Center
06:27PM 36.6925 -79.3894 217° Southwest 416 479 43,000  Level Washington Center
06:28PM 36.6003 -79.4728 216° Southwest 416 479 43,000  Level Washington Center
06:30PM 36.3850 -79.6650 216° Southwest 424 488 43,000  Level Atlanta Center
06:31PM 36.2942 -79.7497 217° Southwest 415 478 43,000  Level Atlanta Center
06:32PM 36.2011 -79.8344 216° Southwest 425 489 43,000  Level Atlanta Center
06:33PM 36.1181 -79.9056 215° Southwest 420 483 43,000  Level Atlanta Center
06:34PM 36.0247 -79.9822 214° Southwest 425 489 43,000  Level Atlanta Center
06:35PM 35.9161 -80.0414 204° Southwest 419 482 43,000  Level Atlanta Center
06:36PM 35.8072 -80.0931 201° Southwest 419 482 43,000  Level Atlanta Center
06:37PM 35.6900 -80.1522 202° Southwest 419 482 43,000  Level Atlanta Center
06:38PM 35.5833 -80.2058 202° Southwest 419 482 43,000  Level Atlanta Center
06:39PM 35.4786 -80.2592 203° Southwest 411 473 43,000  Level Atlanta Center
06:40PM 35.3739 -80.3125 203° Southwest 411 473 43,000  Level Atlanta Center
06:41PM 35.2792 -80.3600 202° Southwest 411 473 43,000  Level Atlanta Center
06:43PM 35.0667 -80.4631 202° Southwest 389 448 43,000  Level Jacksonville Center
06:44PM 34.9656 -80.5164 203° Southwest 395 455 43,000  Level Jacksonville Center
06:45PM 34.8603 -80.5700 203° Southwest 401 461 43,000  Level Jacksonville Center
06:46PM 34.7611 -80.6208 203° Southwest 401 461 43,000  Level Jacksonville Center
06:47PM 34.6575 -80.6689 201° Southwest 401 461 43,000  Level Jacksonville Center
06:48PM 34.5481 -80.7247 203° Southwest 417 480 43,000  Level Jacksonville Center
06:49PM 34.4403 -80.7728 200° South 417 480 43,000  Level Jacksonville Center
06:50PM 34.3475 -80.8278 206° Southwest 405 466 43,000  Level Jacksonville Center
06:51PM 34.2397 -80.8756 200° South 394 453 43,000  Level Jacksonville Center
06:52PM 34.1361 -80.9231 201° Southwest 394 453 43,000  Level Jacksonville Center
06:53PM 34.0325 -80.9731 202° Southwest 394 453 43,000  Level Jacksonville Center
06:54PM 33.9311 -81.0228 202° Southwest 394 453 43,000  Level Jacksonville Center
06:55PM 33.8378 -81.0622 199° South 394 453 43,000  Level Jacksonville Center
06:56PM 33.7281 -81.1219 204° Southwest 394 453 43,000  Level Jacksonville Center
06:57PM 33.6286 -81.1714 202° Southwest 394 453 43,000  Level Jacksonville Center
06:58PM 33.5269 -81.2208 202° Southwest 394 453 43,000  Level Jacksonville Center
06:59PM 33.4253 -81.2700 202° Southwest 394 453 43,000  Level Jacksonville Center
07:00PM 33.3258 -81.3214 203° Southwest 394 453 43,000  Level Jacksonville Center
07:01PM 33.2242 -81.3656 200° South 389 448 43,000  Level Jacksonville Center
07:02PM 33.1244 -81.4167 203° Southwest 389 448 43,000  Level Jacksonville Center
07:03PM 33.0269 -81.4656 203° Southwest 389 448 43,000  Level Jacksonville Center
07:04PM 32.9336 -81.5089 201° Southwest 389 448 43,000  Level Jacksonville Center
07:05PM 32.8358 -81.5600 204° Southwest 389 448 43,000  Level Jacksonville Center
07:06PM 32.7361 -81.6058 201° Southwest 389 448 43,000  Level Jacksonville Center
07:07PM 32.6281 -81.6592 203° Southwest 389 448 43,000  Level Jacksonville Center
07:08PM 32.5389 -81.7022 202° Southwest 389 448 43,000  Level Jacksonville Center
07:09PM 32.4286 -81.7556 202° Southwest 389 448 43,000  Level Jacksonville Center
07:10PM 32.3392 -81.7958 201° Southwest 389 448 43,000  Level Jacksonville Center
07:11PM 32.2311 -81.8489 203° Southwest 389 448 43,000  Level Jacksonville Center
07:12PM 32.1314 -81.8917 200° South 389 448 43,000  Level Jacksonville Center
07:13PM 32.0292 -81.9025 185° South 398 458 43,000  Level Jacksonville Center
07:14PM 31.9103 -81.9186 187° South 403 464 43,000  Level Jacksonville Center
07:15PM 31.8122 -81.9317 186° South 403 464 43,000  Level Jacksonville Center
07:16PM 31.6933 -81.9453 186° South 409 471 43,000  Level Jacksonville Center
07:17PM 31.5828 -81.9586 186° South 402 463 43,000  Level Jacksonville Center
07:19PM 31.3636 -81.9875 186° South 408 470 43,000  Level Jacksonville Center
07:20PM 31.2636 -82.0056 189° South 403 464 43,000  Level Jacksonville Center
07:21PM 31.1489 -82.0186 186° South 408 470 43,000  Level Jacksonville Center
07:22PM 31.0383 -82.0294 185° South 408 470 43,000  Level Jacksonville Center
07:23PM 30.9256 -82.0450 187° South 408 470 43,000  Level Jacksonville Center
07:24PM 30.8128 -82.0581 186° South 408 470 43,000  Level Jacksonville Center
07:25PM 30.7003 -82.0736 187° South 408 470 43,000  Level Jacksonville Center
07:26PM 30.5875 -82.0867 186° South 408 470 43,000  Level Jacksonville Center
07:27PM 30.4728 -82.0925 183° South 408 470 43,000  Level Jacksonville Center
07:28PM 30.3581 -82.1078 187° South 413 475 43,000  Level Jacksonville Center
07:29PM 30.2453 -82.1231 187° South 413 475 43,000  Level Jacksonville Center
07:30PM 30.1283 -82.1192 178° South 413 475 43,000  Level Jacksonville Center
07:31PM 30.0011 -82.0986 172° South 413 475 43,000  Level Jacksonville Center
07:32PM 29.8881 -82.0733 169° South 428 493 43,000 -360 Level Jacksonville Center
07:33PM 29.7689 -82.0528 171° South 428 493 42,300 -1,620 Descending Jacksonville Center
07:34PM 29.6561 -82.0275 169° South 428 493 39,800 -2,520 Descending Jacksonville Center
07:35PM 29.5411 -82.0044 170° South 423 487 37,300 -2,220 Descending Jacksonville Center
07:36PM 29.4219 -81.9842 172° South 430 495 35,400 -1,200 Descending Jacksonville Center
07:37PM 29.2964 -81.9592 170° South 443 510 35,000 -240 Descending Jacksonville Center
07:38PM 29.1711 -81.9294 168° South 455 524 35,000  Level Jacksonville Center
07:39PM 29.0478 -81.9069 171° South 455 524 35,000 -840 Level Jacksonville Center
07:41PM 28.8183 -81.8642 171° South 439 505 32,600 -1,920 Descending Miami Center
07:42PM 28.7003 -81.8375 169° South 439 505 29,400 -2,820 Descending Miami Center
07:43PM 28.5883 -81.8158 170° South 429 494 27,000 -1,200 Descending Miami Center
07:44PM 28.4706 -81.7847 167° South 430 495 27,000  Level Miami Center
07:45PM 28.3344 -81.7458 166° South 449 517 27,000 -720 Level Miami Center
07:46PM 28.2228 -81.7150 166° South 441 507 25,600 -1,680 Descending Miami Center
07:47PM 28.1172 -81.6847 166° South 414 476 23,700 -1,980 Descending Miami Center
07:48PM 28.0075 -81.6611 169° South 401 461 21,700 -1,380 Descending Miami Center
07:49PM 27.9039 -81.6425 171° South 395 455 21,000 -360 Descending Miami Center
07:50PM 27.8083 -81.6244 171° South 390 449 21,000  Level Miami Center
07:51PM 27.7025 -81.6061 171° South 392 451 21,000  Level Miami Center
07:52PM 27.5844 -81.5847 171° South 392 451 21,000  Level Miami Center
07:53PM 27.4786 -81.5664 171° South 386 444 21,000 -180 Level Miami Center
07:54PM 27.3831 -81.5483 170° South 386 444 20,700 -2,160 Descending Miami Center
07:55PM 27.2814 -81.5303 171° South 386 444 16,700 -4,020 Descending Miami Center
07:56PM 27.1839 -81.5147 172° South 375 432 12,700 -3,180 Descending Miami Center
07:57PM 27.0925 -81.4969 170° South 355 409 10,400 -1,380 Descending Miami Center
07:58PM 26.9931 -81.4767 170° South 344 396 10,000 -240 Descending Miami Center
07:59PM 26.9169 -81.4342 154° Southeast 330 380 10,000 -60 Level Miami Center
08:00PM 26.8183 -81.3883 157° South 341 392 9,900 -60 Descending Miami Center
08:01PM 26.7222 -81.3917 182° South 341 392 9,900 -660 Level Miami Center
08:02PM 26.6447 -81.3956 183° South 314 361 8,600 -1,620 Descending Miami Center
08:03PM 26.5758 -81.4000 183° South 285 328 6,700 -1,320 Descending Miami Center
08:04PM 26.5025 -81.4086 186° South 279 321 6,000 -720 Descending Miami Center
08:06PM 26.3399 -81.4534 197° South  Level FlightAware Approximate
08:13PM 26.1500 -81.7667 246° West  Level FlightAware Approximate
08:14PM 26.1524 -81.7756 246° West  Level Estimated
08:15PM 26.1524 -81.7756 246° West  Level Estimated
08:16PM 26.1524 -81.7756 246° West  Level Estimated
08:17PM 26.1524 -81.7756 246° West  Level Estimated
08:18PM 26.1524 -81.7756 246° West  Level Estimated
08:19PM 26.1524 -81.7756 246° West  Level Estimated
08:20PM 26.1524 -81.7756 246° West  Level Estimated
08:21PM 26.1524 -81.7756 246° West  Level Estimated